createdAt,value
2023-04-10T00:02:18.478Z,81.98
2023-04-10T00:07:18.576Z,82.72
2023-04-10T00:12:17.399Z,79.84
2023-04-10T00:17:16.512Z,79.62
2023-04-10T00:22:15.717Z,80.19
2023-04-10T00:27:14.899Z,79.65
2023-04-10T00:32:16.752Z,80.12
2023-04-10T00:37:16.301Z,80.67
2023-04-10T00:42:15.843Z,80.97
2023-04-10T00:47:16.503Z,80.18
2023-04-10T00:52:17.292Z,80.25
2023-04-10T00:57:16.667Z,80.78
2023-04-10T01:02:15.786Z,81.13
2023-04-10T01:07:23.234Z,81.31
2023-04-10T01:12:47.773Z,81.46
2023-04-10T01:17:56.365Z,81.77
2023-04-10T01:23:38.292Z,81.80
2023-04-10T01:29:00.565Z,82.06
2023-04-10T01:34:07.374Z,82.19
2023-04-10T01:39:09.952Z,82.21
2023-04-10T01:44:14.857Z,81.66
2023-04-10T01:49:16.931Z,82.00
2023-04-10T01:54:17.494Z,82.18
2023-04-10T01:59:17.777Z,81.23
2023-04-10T02:04:17.295Z,81.21
2023-04-10T02:09:27.426Z,82.12
2023-04-10T02:14:29.449Z,82.09
2023-04-10T02:19:32.336Z,81.34
2023-04-10T02:24:32.203Z,81.41
2023-04-10T02:29:31.675Z,81.46
2023-04-10T02:34:31.708Z,81.36
2023-04-10T02:39:32.978Z,81.94
2023-04-10T02:44:32.382Z,82.05
2023-04-10T02:49:33.826Z,82.07
2023-04-10T02:54:38.769Z,81.43
2023-04-10T02:59:38.010Z,81.90
2023-04-10T03:04:38.909Z,82.17
2023-04-10T03:09:38.313Z,82.18
2023-04-10T03:14:37.157Z,82.47
2023-04-10T03:19:37.197Z,82.83
2023-04-10T03:24:40.306Z,82.65
2023-04-10T03:29:39.809Z,82.31
2023-04-10T03:34:39.420Z,83.01
2023-04-10T03:39:38.597Z,83.10
2023-04-10T03:44:38.072Z,83.23
2023-04-10T03:49:38.068Z,83.14
2023-04-10T03:54:38.677Z,82.42
2023-04-10T03:59:39.636Z,82.44
2023-04-10T04:04:42.527Z,83.42
2023-04-10T04:10:18.421Z,84.44
2023-04-10T04:15:27.965Z,84.12
2023-04-10T04:20:37.444Z,83.81
2023-04-10T04:25:52.946Z,83.68
2023-04-10T04:30:55.467Z,83.63
2023-04-10T04:36:13.394Z,83.90
2023-04-10T04:41:30.844Z,83.45
2023-04-10T04:47:02.827Z,82.41
2023-04-10T04:52:18.413Z,81.47
2023-04-10T04:57:50.352Z,82.20
2023-04-10T05:02:55.707Z,82.34
2023-04-10T05:08:02.527Z,82.14
2023-04-10T05:13:23.820Z,82.41
2023-04-10T05:18:46.486Z,82.33
2023-04-10T05:24:14.763Z,82.25
2023-04-10T05:29:26.634Z,83.21
2023-04-10T05:34:43.632Z,83.75
2023-04-10T05:40:06.744Z,83.94
2023-04-10T05:45:16.464Z,84.13
2023-04-10T05:50:39.795Z,84.20
2023-04-10T05:55:52.815Z,84.15
2023-04-10T06:01:11.629Z,84.03
2023-04-10T06:06:15.847Z,84.02
2023-04-10T06:11:15.032Z,84.34
2023-04-10T06:16:16.696Z,84.11
2023-04-10T06:21:16.451Z,84.83
2023-04-10T06:26:18.271Z,84.46
2023-04-10T06:31:17.594Z,84.13
2023-04-10T06:36:17.406Z,84.13
2023-04-10T06:41:20.283Z,84.30
2023-04-10T06:46:21.523Z,84.59
2023-04-10T06:51:26.212Z,83.60
2023-04-10T06:56:27.105Z,85.02
2023-04-10T07:01:26.677Z,85.18
2023-04-10T07:06:26.524Z,84.95
2023-04-10T07:11:25.718Z,84.76
2023-04-10T07:16:24.950Z,84.64
2023-04-10T07:21:24.220Z,84.38
2023-04-10T07:26:24.456Z,84.29
2023-04-10T07:31:24.299Z,84.12
2023-04-10T07:36:23.742Z,83.88
2023-04-10T07:41:24.479Z,83.90
2023-04-10T07:46:24.023Z,83.73
2023-04-10T07:51:23.296Z,83.46
2023-04-10T07:56:23.508Z,83.08
2023-04-10T08:01:22.587Z,82.69
2023-04-10T08:06:21.953Z,82.30
2023-04-10T08:11:33.875Z,81.60
2023-04-10T08:16:37.119Z,80.29
2023-04-10T08:21:37.398Z,80.02
2023-04-10T08:26:36.370Z,79.90
2023-04-10T08:31:36.038Z,79.17
2023-04-10T08:36:38.083Z,78.84
2023-04-10T08:41:37.044Z,77.84
2023-04-10T08:46:42.054Z,75.75
2023-04-10T08:51:49.087Z,76.04
2023-04-10T08:56:55.050Z,75.98
2023-04-10T09:01:54.904Z,75.40
2023-04-10T09:06:56.678Z,74.67
2023-04-10T09:12:06.948Z,72.45
2023-04-10T09:17:25.354Z,70.81
2023-04-10T09:22:35.589Z,71.02
2023-04-10T09:27:37.652Z,70.56
2023-04-10T09:32:46.813Z,67.74
2023-04-10T09:37:48.505Z,64.91
2023-04-10T09:42:47.759Z,65.14
2023-04-10T09:48:02.167Z,65.42
2023-04-10T09:53:03.639Z,61.60
2023-04-10T09:58:05.161Z,62.49
2023-04-10T10:03:09.125Z,63.04
2023-04-10T10:08:08.616Z,59.49
2023-04-10T10:13:09.967Z,56.20
2023-04-10T10:18:33.726Z,57.20
2023-04-10T10:23:36.032Z,56.84
2023-04-10T10:28:37.260Z,57.50
2023-04-10T10:33:41.717Z,58.41
2023-04-10T10:38:47.702Z,58.28
2023-04-10T10:44:01.734Z,55.25
2023-04-10T10:49:03.902Z,50.06
2023-04-10T10:54:02.973Z,52.17
2023-04-10T10:59:02.242Z,51.11
2023-04-10T11:04:01.664Z,50.47
2023-04-10T11:09:00.484Z,51.66
2023-04-10T11:14:21.666Z,53.12
2023-04-10T11:19:23.560Z,52.75
2023-04-10T11:24:24.131Z,52.75
2023-04-10T11:29:39.488Z,52.32
2023-04-10T11:34:47.210Z,51.35
2023-04-10T11:39:46.829Z,50.42
2023-04-10T11:44:48.734Z,47.24
2023-04-10T11:49:58.783Z,48.33
2023-04-10T11:54:58.148Z,46.51
2023-04-10T11:59:57.021Z,47.42
2023-04-10T12:05:03.606Z,45.57
2023-04-10T12:10:03.464Z,46.34
2023-04-10T12:15:02.688Z,47.58
2023-04-10T12:20:02.821Z,47.74
2023-04-10T12:25:02.266Z,45.62
2023-04-10T12:30:10.669Z,46.82
2023-04-10T12:35:14.614Z,45.80
2023-04-10T12:40:18.445Z,44.01
2023-04-10T12:45:17.989Z,45.02
2023-04-10T12:50:18.981Z,46.00
2023-04-10T12:55:21.433Z,43.50
2023-04-10T13:00:23.845Z,42.26
2023-04-10T13:05:23.386Z,42.57
2023-04-10T13:10:24.747Z,43.41
2023-04-10T13:15:24.516Z,43.19
2023-04-10T13:20:24.836Z,42.93
2023-04-10T13:25:24.237Z,43.54
2023-04-10T13:30:23.573Z,44.19
2023-04-10T13:35:22.647Z,43.87
2023-04-10T13:40:22.586Z,43.80
2023-04-10T13:45:21.939Z,43.57
2023-04-10T13:50:21.009Z,43.03
2023-04-10T13:55:22.148Z,42.57
2023-04-10T14:00:22.753Z,43.25
2023-04-10T14:05:22.690Z,43.14
2023-04-10T14:10:21.878Z,42.84
2023-04-10T14:15:21.981Z,43.67
2023-04-10T14:20:23.763Z,44.85
2023-04-10T14:25:23.668Z,45.51
2023-04-10T14:30:23.144Z,46.62
2023-04-10T14:35:23.258Z,48.25
2023-04-10T14:40:22.613Z,49.35
2023-04-10T14:45:22.756Z,49.83
2023-04-10T14:50:22.475Z,50.36
2023-04-10T14:55:22.487Z,50.90
2023-04-10T15:00:25.094Z,51.62
2023-04-10T15:05:25.829Z,51.81
2023-04-10T15:10:25.949Z,51.83
2023-04-10T15:15:26.055Z,52.98
2023-04-10T15:20:25.822Z,54.04
2023-04-10T15:25:24.998Z,54.50
2023-04-10T15:30:25.756Z,55.36
2023-04-10T15:35:26.581Z,55.35
2023-04-10T15:40:27.324Z,55.37
2023-04-10T15:45:26.221Z,55.96
2023-04-10T15:50:25.858Z,55.63
2023-04-10T15:55:24.995Z,55.47
2023-04-10T16:00:26.481Z,53.88
2023-04-10T16:05:25.757Z,51.55
2023-04-10T16:10:24.451Z,51.01
2023-04-10T16:15:24.309Z,51.39
2023-04-10T16:20:24.298Z,51.06
2023-04-10T16:25:24.287Z,51.31
2023-04-10T16:30:25.168Z,52.15
2023-04-10T16:35:25.266Z,52.35
2023-04-10T16:40:27.940Z,51.62
2023-04-10T16:45:27.333Z,48.63
2023-04-10T16:50:26.501Z,46.90
2023-04-10T16:55:26.101Z,46.30
2023-04-10T17:00:25.645Z,45.73
2023-04-10T17:05:24.782Z,46.14
2023-04-10T17:10:24.241Z,46.09
2023-04-10T17:15:24.896Z,46.75
2023-04-10T17:20:24.003Z,47.80
2023-04-10T17:25:25.220Z,48.98
2023-04-10T17:30:24.410Z,50.02
2023-04-10T17:35:25.636Z,51.00
2023-04-10T17:40:26.300Z,51.81
2023-04-10T17:45:27.267Z,52.76
2023-04-10T17:50:28.721Z,53.67
2023-04-10T17:55:36.978Z,54.20
2023-04-10T18:00:42.553Z,54.88
2023-04-10T18:05:42.135Z,55.89
2023-04-10T18:10:42.645Z,56.83
2023-04-10T18:15:42.510Z,57.41
2023-04-10T18:20:46.317Z,57.96
2023-04-10T18:25:53.125Z,58.54
2023-04-10T18:30:56.743Z,59.08
2023-04-10T18:36:02.412Z,60.68
2023-04-10T18:41:03.230Z,60.92
2023-04-10T18:46:06.152Z,62.24
2023-04-10T18:51:06.636Z,62.17
2023-04-10T18:56:06.013Z,63.07
2023-04-10T19:01:11.033Z,63.86
2023-04-10T19:06:17.877Z,64.35
2023-04-10T19:11:23.002Z,63.99
2023-04-10T19:16:22.837Z,63.89
2023-04-10T19:21:23.024Z,64.33
2023-04-10T19:26:46.092Z,64.61
2023-04-10T19:31:46.821Z,64.89
2023-04-10T19:36:46.872Z,65.21
2023-04-10T19:41:46.094Z,65.39
2023-04-10T19:46:46.447Z,65.71
2023-04-10T19:51:46.377Z,65.97
2023-04-10T19:56:45.857Z,66.51
2023-04-10T20:01:46.363Z,66.77
2023-04-10T20:07:26.788Z,66.73
2023-04-10T20:12:27.134Z,66.82
2023-04-10T20:17:28.321Z,67.19
2023-04-10T20:22:30.175Z,67.64
2023-04-10T20:27:30.144Z,67.83
2023-04-10T20:32:29.063Z,68.14
2023-04-10T20:37:29.566Z,68.54
2023-04-10T20:42:29.521Z,68.83
2023-04-10T20:47:30.630Z,68.59
2023-04-10T20:52:31.021Z,68.91
2023-04-10T20:57:31.057Z,69.12
2023-04-10T21:02:31.483Z,69.35
2023-04-10T21:07:32.799Z,69.44
2023-04-10T21:12:32.541Z,69.83
2023-04-10T21:17:38.119Z,70.12
2023-04-10T21:22:38.020Z,70.19
2023-04-10T21:27:38.046Z,70.53
2023-04-10T21:32:41.419Z,70.88
2023-04-10T21:37:44.120Z,71.01
2023-04-10T21:42:46.362Z,71.09
2023-04-10T21:47:46.418Z,71.53
2023-04-10T21:52:46.094Z,71.81
2023-04-10T21:57:44.897Z,71.98
2023-04-10T22:02:44.568Z,71.85
2023-04-10T22:07:47.951Z,72.09
2023-04-10T22:12:48.839Z,72.15
2023-04-10T22:17:51.385Z,72.59
2023-04-10T22:22:51.586Z,72.72
2023-04-10T22:27:52.544Z,73.13
2023-04-10T22:32:55.732Z,73.40
2023-04-10T22:37:57.172Z,73.55
2023-04-10T22:42:57.285Z,73.58
2023-04-10T22:47:57.531Z,73.87
2023-04-10T22:52:57.284Z,73.94
2023-04-10T22:57:56.403Z,74.13
2023-04-10T23:02:55.816Z,74.29
2023-04-10T23:07:55.722Z,74.70
2023-04-10T23:12:55.823Z,74.91
2023-04-10T23:17:56.305Z,75.10
2023-04-10T23:22:56.471Z,75.18
2023-04-10T23:27:55.648Z,75.08
2023-04-10T23:32:57.032Z,75.28
2023-04-10T23:37:58.229Z,75.38
2023-04-10T23:42:57.903Z,75.37
2023-04-10T23:47:57.433Z,75.36
2023-04-10T23:52:59.403Z,75.48
2023-04-10T23:57:58.875Z,75.35
